Time,TemperatureF,DewpointF,PressureIn,WindDirection,WindDirectionDegrees,WindSpeedMPH,WindSpeedGustMPH,Humidity,HourlyPrecipIn,Conditions,Clouds,dailyrainin,SoftwareType,DateUTC
2013-01-05 00:00:00,27.0,23.9,30.43,NW,323,0.0,-999.0,89,0.00,,,0.00,Haskell-WGSend-v0.01,2013-01-05 06:00:00,
2013-01-05 00:05:00,27.0,23.9,30.42,NW,323,0.0,-999.0,89,0.00,,,0.00,Haskell-WGSend-v0.01,2013-01-05 06:05:00,
2013-01-05 00:10:00,27.0,23.9,30.42,NW,323,0.0,-999.0,89,0.00,,,0.00,Haskell-WGSend-v0.01,2013-01-05 06:10:00,
2013-01-05 00:15:00,26.9,23.8,30.42,NW,323,0.0,-999.0,89,0.00,,,0.00,Haskell-WGSend-v0.01,2013-01-05 06:15:00,
2013-01-05 00:20:00,26.9,23.5,30.42,NW,323,0.0,-999.0,88,0.00,,,0.00,Haskell-WGSend-v0.01,2013-01-05 06:20:00,
2013-01-05 00:25:00,26.9,23.8,30.41,NW,323,0.0,-999.0,89,0.00,,,0.00,Haskell-WGSend-v0.01,2013-01-05 06:25:00,
2013-01-05 00:30:00,26.8,23.7,30.41,NW,323,0.0,-999.0,89,0.00,,,0.00,Haskell-WGSend-v0.01,2013-01-05 06:30:00,
2013-01-05 00:35:00,26.8,23.7,30.41,NW,323,0.0,-999.0,89,0.00,,,0.00,Haskell-WGSend-v0.01,2013-01-05 06:35:00,
2013-01-05 00:40:00,26.7,23.6,30.41,NW,323,0.0,-999.0,89,0.00,,,0.00,Haskell-WGSend-v0.01,2013-01-05 06:40:00,
2013-01-05 00:45:00,26.6,23.5,30.41,NW,323,0.0,-999.0,89,0.00,,,0.00,Haskell-WGSend-v0.01,2013-01-05 06:45:00,
2013-01-05 00:50:00,26.5,23.4,30.42,NW,323,0.0,-999.0,89,0.00,,,0.00,Haskell-WGSend-v0.01,2013-01-05 06:50:00,
2013-01-05 00:55:00,26.5,23.4,30.42,NW,323,0.0,-999.0,89,0.00,,,0.00,Haskell-WGSend-v0.01,2013-01-05 06:55:00,
2013-01-05 01:00:00,26.4,23.3,30.43,NW,323,0.0,-999.0,89,0.00,,,0.00,Haskell-WGSend-v0.01,2013-01-05 07:00:00,
2013-01-05 01:05:00,26.3,22.9,30.43,NW,323,0.0,-999.0,88,0.00,,,0.00,Haskell-WGSend-v0.01,2013-01-05 07:05:00,
2013-01-05 01:10:00,26.2,22.8,30.43,NW,323,0.0,-999.0,88,0.00,,,0.00,Haskell-WGSend-v0.01,2013-01-05 07:10:00,
2013-01-05 01:15:00,26.1,23.0,30.43,NW,323,0.0,-999.0,89,0.00,,,0.00,Haskell-WGSend-v0.01,2013-01-05 07:15:00,
2013-01-05 01:20:00,26.1,23.0,30.43,NW,323,0.0,-999.0,89,0.00,,,0.00,Haskell-WGSend-v0.01,2013-01-05 07:20:00,
2013-01-05 01:25:00,26.1,23.0,30.42,NW,323,0.0,-999.0,89,0.00,,,0.00,Haskell-WGSend-v0.01,2013-01-05 07:25:00,
2013-01-05 01:30:00,26.4,23.6,30.42,NW,323,0.0,-999.0,90,0.00,,,0.00,Haskell-WGSend-v0.01,2013-01-05 07:30:00,
2013-01-05 01:35:00,26.5,23.7,30.42,NW,323,0.0,-999.0,90,0.00,,,0.00,Haskell-WGSend-v0.01,2013-01-05 07:35:00,
2013-01-05 01:40:00,26.6,23.8,30.42,NW,323,0.0,-999.0,90,0.00,,,0.00,Haskell-WGSend-v0.01,2013-01-05 07:40:00,
2013-01-05 01:45:00,26.6,23.8,30.41,NW,323,0.0,-999.0,90,0.00,,,0.00,Haskell-WGSend-v0.01,2013-01-05 07:45:00,
2013-01-05 01:50:00,26.6,23.8,30.42,NW,323,0.0,-999.0,90,0.00,,,0.00,Haskell-WGSend-v0.01,2013-01-05 07:50:00,
2013-01-05 01:55:00,26.6,23.8,30.41,NW,323,0.0,-999.0,90,0.00,,,0.00,Haskell-WGSend-v0.01,2013-01-05 07:55:00,
2013-01-05 02:00:00,26.6,23.8,30.42,NW,323,0.0,-999.0,90,0.00,,,0.00,Haskell-WGSend-v0.01,2013-01-05 08:00:00,
2013-01-05 02:05:00,26.6,23.8,30.42,NW,323,0.0,-999.0,90,0.00,,,0.00,Haskell-WGSend-v0.01,2013-01-05 08:05:00,
2013-01-05 02:10:00,26.5,23.7,30.42,NW,323,0.0,-999.0,90,0.00,,,0.00,Haskell-WGSend-v0.01,2013-01-05 08:10:00,
2013-01-05 02:15:00,26.4,23.3,30.42,NW,323,0.0,-999.0,89,0.00,,,0.00,Haskell-WGSend-v0.01,2013-01-05 08:15:00,
2013-01-05 02:25:00,26.1,23.0,30.42,NW,323,0.0,-999.0,89,0.00,,,0.00,Haskell-WGSend-v0.01,2013-01-05 08:25:00,
2013-01-05 02:30:00,26.2,23.4,30.42,NW,323,0.0,-999.0,90,0.00,,,0.00,Haskell-WGSend-v0.01,2013-01-05 08:30:00,
2013-01-05 02:35:00,26.1,23.3,30.42,NW,323,0.0,-999.0,90,0.00,,,0.00,Haskell-WGSend-v0.01,2013-01-05 08:35:00,
2013-01-05 02:40:00,26.1,23.3,30.43,NW,323,0.0,-999.0,90,0.00,,,0.00,Haskell-WGSend-v0.01,2013-01-05 08:40:00,
2013-01-05 02:45:00,26.1,23.3,30.42,NW,323,0.0,-999.0,90,0.00,,,0.00,Haskell-WGSend-v0.01,2013-01-05 08:45:00,
2013-01-05 02:50:00,26.1,23.0,30.42,NW,323,0.0,-999.0,89,0.00,,,0.00,Haskell-WGSend-v0.01,2013-01-05 08:50:00,
2013-01-05 02:55:00,26.1,23.0,30.43,NW,323,0.0,-999.0,89,0.00,,,0.00,Haskell-WGSend-v0.01,2013-01-05 08:55:00,
2013-01-05 03:00:00,26.1,23.0,30.43,NW,323,0.0,-999.0,89,0.00,,,0.00,Haskell-WGSend-v0.01,2013-01-05 09:00:00,
2013-01-05 03:05:00,26.1,23.0,30.43,NW,323,0.0,-999.0,89,0.00,,,0.00,Haskell-WGSend-v0.01,2013-01-05 09:05:00,
2013-01-05 03:10:00,26.1,23.0,30.43,NW,323,0.0,-999.0,89,0.00,,,0.00,Haskell-WGSend-v0.01,2013-01-05 09:10:00,
2013-01-05 03:15:00,26.0,22.9,30.43,NW,323,0.0,-999.0,89,0.00,,,0.00,Haskell-WGSend-v0.01,2013-01-05 09:15:00,
2013-01-05 03:20:00,26.0,23.2,30.43,NW,323,0.0,-999.0,90,0.00,,,0.00,Haskell-WGSend-v0.01,2013-01-05 09:20:00,
2013-01-05 03:25:00,25.9,23.1,30.43,NW,323,0.0,-999.0,90,0.00,,,0.00,Haskell-WGSend-v0.01,2013-01-05 09:25:00,
2013-01-05 03:30:00,25.9,23.1,30.43,NW,323,0.0,-999.0,90,0.00,,,0.00,Haskell-WGSend-v0.01,2013-01-05 09:30:00,
2013-01-05 03:35:00,25.9,23.1,30.43,NW,323,0.0,-999.0,90,0.00,,,0.00,Haskell-WGSend-v0.01,2013-01-05 09:35:00,
2013-01-05 03:40:00,25.8,23.0,30.43,NW,323,0.0,-999.0,90,0.00,,,0.00,Haskell-WGSend-v0.01,2013-01-05 09:40:00,
2013-01-05 03:45:00,25.8,23.0,30.43,NW,323,0.0,-999.0,90,0.00,,,0.00,Haskell-WGSend-v0.01,2013-01-05 09:45:00,
2013-01-05 03:50:00,25.8,23.0,30.43,NW,323,0.0,-999.0,90,0.00,,,0.00,Haskell-WGSend-v0.01,2013-01-05 09:50:00,
2013-01-05 03:55:00,25.7,22.9,30.43,NW,323,0.0,-999.0,90,0.00,,,0.00,Haskell-WGSend-v0.01,2013-01-05 09:55:00,
2013-01-05 04:00:00,25.6,22.8,30.43,NW,323,0.0,-999.0,90,0.00,,,0.00,Haskell-WGSend-v0.01,2013-01-05 10:00:00,
2013-01-05 04:05:00,25.6,22.8,30.43,NW,323,0.0,-999.0,90,0.00,,,0.00,Haskell-WGSend-v0.01,2013-01-05 10:05:00,
2013-01-05 04:10:00,25.5,22.7,30.43,NW,323,0.0,-999.0,90,0.00,,,0.00,Haskell-WGSend-v0.01,2013-01-05 10:10:00,
2013-01-05 04:15:00,25.6,22.8,30.43,NW,323,0.0,-999.0,90,0.00,,,0.00,Haskell-WGSend-v0.01,2013-01-05 10:15:00,
2013-01-05 04:20:00,25.6,22.8,30.43,NW,323,0.0,-999.0,90,0.00,,,0.00,Haskell-WGSend-v0.01,2013-01-05 10:20:00,
2013-01-05 04:25:00,25.5,22.7,30.43,NW,323,0.0,-999.0,90,0.00,,,0.00,Haskell-WGSend-v0.01,2013-01-05 10:25:00,
2013-01-05 04:30:00,25.4,22.6,30.43,NW,323,0.0,-999.0,90,0.00,,,0.00,Haskell-WGSend-v0.01,2013-01-05 10:30:00,
2013-01-05 04:35:00,25.3,22.5,30.43,NW,323,0.0,-999.0,90,0.00,,,0.00,Haskell-WGSend-v0.01,2013-01-05 10:35:00,
2013-01-05 04:40:00,25.2,22.4,30.43,NW,323,0.0,-999.0,90,0.00,,,0.00,Haskell-WGSend-v0.01,2013-01-05 10:40:00,
2013-01-05 04:45:00,25.2,22.4,30.43,NW,323,0.0,-999.0,90,0.00,,,0.00,Haskell-WGSend-v0.01,2013-01-05 10:45:00,
2013-01-05 04:50:00,25.3,22.8,30.44,NW,323,0.0,-999.0,91,0.00,,,0.00,Haskell-WGSend-v0.01,2013-01-05 10:50:00,
2013-01-05 04:55:00,25.2,22.7,30.43,NW,323,0.0,-999.0,91,0.00,,,0.00,Haskell-WGSend-v0.01,2013-01-05 10:55:00,
2013-01-05 05:00:00,25.2,22.4,30.43,NW,323,0.0,-999.0,90,0.00,,,0.00,Haskell-WGSend-v0.01,2013-01-05 11:00:00,
2013-01-05 05:05:00,25.1,22.3,30.43,NW,323,0.0,-999.0,90,0.00,,,0.00,Haskell-WGSend-v0.01,2013-01-05 11:05:00,
2013-01-05 05:10:00,25.1,22.6,30.42,NW,323,0.0,-999.0,91,0.00,,,0.00,Haskell-WGSend-v0.01,2013-01-05 11:10:00,
2013-01-05 05:15:00,25.2,22.7,30.42,NW,323,0.0,-999.0,91,0.00,,,0.00,Haskell-WGSend-v0.01,2013-01-05 11:15:00,
2013-01-05 05:25:00,25.2,22.7,30.43,NW,323,0.0,-999.0,91,0.00,,,0.00,Haskell-WGSend-v0.01,2013-01-05 11:25:00,
2013-01-05 05:30:00,25.3,22.8,30.43,NW,323,0.0,-999.0,91,0.00,,,0.00,Haskell-WGSend-v0.01,2013-01-05 11:30:00,
2013-01-05 05:35:00,25.3,22.8,30.42,NW,323,0.0,-999.0,91,0.00,,,0.00,Haskell-WGSend-v0.01,2013-01-05 11:35:00,
2013-01-05 05:40:00,25.4,22.9,30.42,NW,323,0.0,-999.0,91,0.00,,,0.00,Haskell-WGSend-v0.01,2013-01-05 11:40:00,
2013-01-05 05:50:00,25.5,23.0,30.42,NW,323,0.0,-999.0,91,0.00,,,0.00,Haskell-WGSend-v0.01,2013-01-05 11:50:00,
2013-01-05 06:00:00,25.5,23.0,30.42,NW,323,0.0,-999.0,91,0.00,,,0.00,Haskell-WGSend-v0.01,2013-01-05 12:00:00,
2013-01-05 06:05:00,25.6,23.1,30.42,NW,323,0.0,-999.0,91,0.00,,,0.00,Haskell-WGSend-v0.01,2013-01-05 12:05:00,
2013-01-05 06:10:00,25.6,23.1,30.41,NW,323,0.0,-999.0,91,0.00,,,0.00,Haskell-WGSend-v0.01,2013-01-05 12:10:00,
2013-01-05 06:15:00,25.7,23.2,30.41,NW,323,0.0,-999.0,91,0.00,,,0.00,Haskell-WGSend-v0.01,2013-01-05 12:15:00,
2013-01-05 06:20:00,25.8,23.3,30.42,NW,323,0.0,-999.0,91,0.00,,,0.00,Haskell-WGSend-v0.01,2013-01-05 12:20:00,
2013-01-05 06:25:00,25.9,23.7,30.42,NW,323,0.0,-999.0,92,0.00,,,0.00,Haskell-WGSend-v0.01,2013-01-05 12:25:00,
2013-01-05 06:30:00,26.0,23.5,30.42,NW,323,0.0,-999.0,91,0.00,,,0.00,Haskell-WGSend-v0.01,2013-01-05 12:30:00,
2013-01-05 06:35:00,26.0,23.5,30.42,NW,323,0.0,-999.0,91,0.00,,,0.00,Haskell-WGSend-v0.01,2013-01-05 12:35:00,
2013-01-05 06:40:00,26.0,23.5,30.43,NW,323,0.0,-999.0,91,0.00,,,0.00,Haskell-WGSend-v0.01,2013-01-05 12:40:00,
2013-01-05 06:45:00,26.0,23.5,30.42,NW,323,0.0,-999.0,91,0.00,,,0.00,Haskell-WGSend-v0.01,2013-01-05 12:45:00,
2013-01-05 06:50:00,26.0,23.5,30.43,NW,323,0.0,-999.0,91,0.00,,,0.00,Haskell-WGSend-v0.01,2013-01-05 12:50:00,
2013-01-05 06:55:00,26.0,23.5,30.43,NW,323,0.0,-999.0,91,0.00,,,0.00,Haskell-WGSend-v0.01,2013-01-05 12:55:00,
2013-01-05 07:00:00,26.0,23.5,30.43,NW,323,0.0,-999.0,91,0.00,,,0.00,Haskell-WGSend-v0.01,2013-01-05 13:00:00,
2013-01-05 07:05:00,26.0,23.5,30.43,NW,323,0.0,-999.0,91,0.00,,,0.00,Haskell-WGSend-v0.01,2013-01-05 13:05:00,
2013-01-05 07:10:00,26.1,23.6,30.43,NW,323,0.0,-999.0,91,0.00,,,0.00,Haskell-WGSend-v0.01,2013-01-05 13:10:00,
2013-01-05 07:15:00,26.2,23.7,30.43,NW,323,0.0,-999.0,91,0.00,,,0.00,Haskell-WGSend-v0.01,2013-01-05 13:15:00,
2013-01-05 07:20:00,26.4,24.2,30.43,NW,323,0.0,-999.0,92,0.00,,,0.00,Haskell-WGSend-v0.01,2013-01-05 13:20:00,
2013-01-05 07:25:00,26.5,24.3,30.43,NW,323,0.0,-999.0,92,0.00,,,0.00,Haskell-WGSend-v0.01,2013-01-05 13:25:00,
2013-01-05 07:30:00,26.5,24.3,30.43,NW,323,0.0,-999.0,92,0.00,,,0.00,Haskell-WGSend-v0.01,2013-01-05 13:30:00,
2013-01-05 07:35:00,26.6,24.4,30.44,NW,323,0.0,-999.0,92,0.00,,,0.00,Haskell-WGSend-v0.01,2013-01-05 13:35:00,
2013-01-05 07:40:00,26.8,24.6,30.45,NW,323,0.0,-999.0,92,0.00,,,0.00,Haskell-WGSend-v0.01,2013-01-05 13:40:00,
2013-01-05 07:50:00,27.4,25.1,30.43,NW,323,0.0,-999.0,92,0.00,,,0.00,Haskell-WGSend-v0.01,2013-01-05 13:50:00,
2013-01-05 07:55:00,27.8,25.5,30.43,NW,323,0.0,-999.0,92,0.00,,,0.00,Haskell-WGSend-v0.01,2013-01-05 13:55:00,
2013-01-05 08:05:00,28.7,26.4,30.43,NW,323,0.0,-999.0,92,0.00,,,0.00,Haskell-WGSend-v0.01,2013-01-05 14:05:00,
2013-01-05 08:10:00,29.1,26.8,30.44,NW,323,0.0,-999.0,92,0.00,,,0.00,Haskell-WGSend-v0.01,2013-01-05 14:10:00,
2013-01-05 08:20:00,30.3,27.7,30.44,NW,323,0.0,-999.0,91,0.00,,,0.00,Haskell-WGSend-v0.01,2013-01-05 14:20:00,
2013-01-05 08:25:00,31.2,28.3,30.44,NW,323,0.0,-999.0,90,0.00,,,0.00,Haskell-WGSend-v0.01,2013-01-05 14:25:00,
2013-01-05 08:30:00,32.4,30.1,30.44,NW,323,0.0,-999.0,91,0.00,,,0.00,Haskell-WGSend-v0.01,2013-01-05 14:30:00,
2013-01-05 08:35:00,33.8,31.2,30.44,NW,323,0.0,-999.0,90,0.00,,,0.00,Haskell-WGSend-v0.01,2013-01-05 14:35:00,
2013-01-05 08:40:00,35.0,31.0,30.43,NW,323,0.0,-999.0,85,0.00,,,0.00,Haskell-WGSend-v0.01,2013-01-05 14:40:00,
2013-01-05 08:45:00,35.9,30.4,30.44,NW,323,0.0,-999.0,80,0.00,,,0.00,Haskell-WGSend-v0.01,2013-01-05 14:45:00,
2013-01-05 08:50:00,36.6,30.7,30.44,NW,323,0.0,-999.0,79,0.00,,,0.00,Haskell-WGSend-v0.01,2013-01-05 14:50:00,
2013-01-05 08:55:00,37.2,30.4,30.45,NW,323,0.0,-999.0,76,0.00,,,0.00,Haskell-WGSend-v0.01,2013-01-05 14:55:00,
2013-01-05 09:00:00,37.9,30.7,30.44,NW,323,0.0,-999.0,75,0.00,,,0.00,Haskell-WGSend-v0.01,2013-01-05 15:00:00,
2013-01-05 09:05:00,38.8,30.9,30.44,NW,323,0.0,-999.0,73,0.00,,,0.00,Haskell-WGSend-v0.01,2013-01-05 15:05:00,
2013-01-05 09:10:00,39.5,30.9,30.45,NW,323,0.0,-999.0,71,0.00,,,0.00,Haskell-WGSend-v0.01,2013-01-05 15:10:00,
2013-01-05 09:15:00,40.0,30.3,30.45,NW,323,0.0,-999.0,68,0.00,,,0.00,Haskell-WGSend-v0.01,2013-01-05 15:15:00,
2013-01-05 09:20:00,40.1,30.4,30.45,NW,323,0.0,-999.0,68,0.00,,,0.00,Haskell-WGSend-v0.01,2013-01-05 15:20:00,
2013-01-05 09:25:00,40.4,31.1,30.45,NW,322,0.0,-999.0,69,0.00,,,0.00,Haskell-WGSend-v0.01,2013-01-05 15:25:00,
2013-01-05 09:35:00,41.6,31.1,30.45,NW,321,0.0,-999.0,66,0.00,,,0.00,Haskell-WGSend-v0.01,2013-01-05 15:35:00,
2013-01-05 09:45:00,42.1,30.8,30.45,NW,312,0.0,-999.0,64,0.00,,,0.00,Haskell-WGSend-v0.01,2013-01-05 15:45:00,
2013-01-05 09:50:00,42.4,30.7,30.45,NW,313,0.0,-999.0,63,0.00,,,0.00,Haskell-WGSend-v0.01,2013-01-05 15:50:00,
2013-01-05 09:55:00,42.6,30.5,30.45,West,264,0.0,-999.0,62,0.00,,,0.00,Haskell-WGSend-v0.01,2013-01-05 15:55:00,
2013-01-05 10:00:00,42.8,29.5,30.45,West,263,0.0,-999.0,59,0.00,,,0.00,Haskell-WGSend-v0.01,2013-01-05 16:00:00,
2013-01-05 10:05:00,43.1,29.4,30.45,West,263,0.0,-999.0,58,0.00,,,0.00,Haskell-WGSend-v0.01,2013-01-05 16:05:00,
2013-01-05 10:10:00,43.4,31.3,30.45,SW,225,1.0,-999.0,62,0.00,,,0.00,Haskell-WGSend-v0.01,2013-01-05 16:10:00,
2013-01-05 10:15:00,43.5,30.2,30.44,WSW,239,3.0,-999.0,59,0.00,,,0.00,Haskell-WGSend-v0.01,2013-01-05 16:15:00,
2013-01-05 10:20:00,43.4,30.1,30.44,SSW,206,1.0,-999.0,59,0.00,,,0.00,Haskell-WGSend-v0.01,2013-01-05 16:20:00,
2013-01-05 10:25:00,43.2,29.5,30.44,SSW,207,1.0,-999.0,58,0.00,,,0.00,Haskell-WGSend-v0.01,2013-01-05 16:25:00,
2013-01-05 10:30:00,43.2,29.9,30.44,SSW,207,1.0,-999.0,59,0.00,,,0.00,Haskell-WGSend-v0.01,2013-01-05 16:30:00,
2013-01-05 10:35:00,43.1,29.8,30.44,SSW,207,0.0,-999.0,59,0.00,,,0.00,Haskell-WGSend-v0.01,2013-01-05 16:35:00,
2013-01-05 10:40:00,43.0,29.3,30.44,SSW,211,1.0,-999.0,58,0.00,,,0.00,Haskell-WGSend-v0.01,2013-01-05 16:40:00,
2013-01-05 10:45:00,42.9,29.2,30.44,SSW,211,2.0,-999.0,58,0.00,,,0.00,Haskell-WGSend-v0.01,2013-01-05 16:45:00,
2013-01-05 10:50:00,42.9,28.8,30.42,SSW,211,0.0,-999.0,57,0.00,,,0.00,Haskell-WGSend-v0.01,2013-01-05 16:50:00,
2013-01-05 10:55:00,42.9,28.8,30.42,SSW,211,0.0,-999.0,57,0.00,,,0.00,Haskell-WGSend-v0.01,2013-01-05 16:55:00,
2013-01-05 11:00:00,43.2,29.9,30.42,SSW,213,4.0,-999.0,59,0.00,,,0.00,Haskell-WGSend-v0.01,2013-01-05 17:00:00,
2013-01-05 11:05:00,43.3,29.1,30.41,SSW,213,0.0,-999.0,57,0.00,,,0.00,Haskell-WGSend-v0.01,2013-01-05 17:05:00,
2013-01-05 11:10:00,43.4,29.6,30.40,SSW,213,0.0,-999.0,58,0.00,,,0.00,Haskell-WGSend-v0.01,2013-01-05 17:10:00,
2013-01-05 11:15:00,43.9,30.1,30.40,SSW,210,2.0,-999.0,58,0.00,,,0.00,Haskell-WGSend-v0.01,2013-01-05 17:15:00,
2013-01-05 11:20:00,44.5,30.7,30.40,SSW,210,0.0,-999.0,58,0.00,,,0.00,Haskell-WGSend-v0.01,2013-01-05 17:20:00,
2013-01-05 11:25:00,44.7,28.2,30.39,SSW,208,0.0,-999.0,52,0.00,,,0.00,Haskell-WGSend-v0.01,2013-01-05 17:25:00,
2013-01-05 11:30:00,44.7,28.7,30.39,SSW,208,0.0,-999.0,53,0.00,,,0.00,Haskell-WGSend-v0.01,2013-01-05 17:30:00,
2013-01-05 11:35:00,44.8,27.8,30.39,SSW,205,0.0,-999.0,51,0.00,,,0.00,Haskell-WGSend-v0.01,2013-01-05 17:35:00,
2013-01-05 11:40:00,44.9,28.4,30.38,SSW,205,0.0,-999.0,52,0.00,,,0.00,Haskell-WGSend-v0.01,2013-01-05 17:40:00,
2013-01-05 11:45:00,45.1,29.0,30.39,SSW,206,0.0,-999.0,53,0.00,,,0.00,Haskell-WGSend-v0.01,2013-01-05 17:45:00,
2013-01-05 11:50:00,45.4,29.8,30.38,SW,223,4.0,-999.0,54,0.00,,,0.00,Haskell-WGSend-v0.01,2013-01-05 17:50:00,
2013-01-05 11:55:00,45.6,30.4,30.38,SW,223,0.0,-999.0,55,0.00,,,0.00,Haskell-WGSend-v0.01,2013-01-05 17:55:00,
2013-01-05 12:00:00,45.8,30.1,30.38,SW,224,0.0,-999.0,54,0.00,,,0.00,Haskell-WGSend-v0.01,2013-01-05 18:00:00,
2013-01-05 12:05:00,45.9,30.7,30.37,SW,232,3.0,-999.0,55,0.00,,,0.00,Haskell-WGSend-v0.01,2013-01-05 18:05:00,
2013-01-05 12:10:00,45.9,31.6,30.37,WSW,244,0.0,-999.0,57,0.00,,,0.00,Haskell-WGSend-v0.01,2013-01-05 18:10:00,
2013-01-05 12:15:00,45.8,31.5,30.37,West,276,1.0,-999.0,57,0.00,,,0.00,Haskell-WGSend-v0.01,2013-01-05 18:15:00,
2013-01-05 12:20:00,45.7,31.8,30.37,West,259,0.0,-999.0,58,0.00,,,0.00,Haskell-WGSend-v0.01,2013-01-05 18:20:00,
2013-01-05 12:25:00,45.9,31.6,30.36,West,260,1.0,-999.0,57,0.00,,,0.00,Haskell-WGSend-v0.01,2013-01-05 18:25:00,
2013-01-05 12:30:00,46.0,31.2,30.35,West,261,3.0,-999.0,56,0.00,,,0.00,Haskell-WGSend-v0.01,2013-01-05 18:30:00,
2013-01-05 12:35:00,46.0,31.2,30.35,West,261,0.0,-999.0,56,0.00,,,0.00,Haskell-WGSend-v0.01,2013-01-05 18:35:00,
2013-01-05 12:45:00,46.3,31.1,30.34,West,261,0.0,-999.0,55,0.00,,,0.00,Haskell-WGSend-v0.01,2013-01-05 18:45:00,
2013-01-05 12:50:00,46.3,30.1,30.34,West,261,2.0,-999.0,53,0.00,,,0.00,Haskell-WGSend-v0.01,2013-01-05 18:50:00,
2013-01-05 12:55:00,46.4,30.7,30.34,West,261,0.0,-999.0,54,0.00,,,0.00,Haskell-WGSend-v0.01,2013-01-05 18:55:00,
2013-01-05 13:00:00,46.6,31.3,30.34,West,262,1.0,-999.0,55,0.00,,,0.00,Haskell-WGSend-v0.01,2013-01-05 19:00:00,
2013-01-05 13:05:00,46.6,29.0,30.34,WSW,255,0.0,-999.0,50,0.00,,,0.00,Haskell-WGSend-v0.01,2013-01-05 19:05:00,
2013-01-05 13:10:00,46.6,30.0,30.33,WSW,255,0.0,-999.0,52,0.00,,,0.00,Haskell-WGSend-v0.01,2013-01-05 19:10:00,
2013-01-05 13:15:00,46.5,29.9,30.33,WSW,255,0.0,-999.0,52,0.00,,,0.00,Haskell-WGSend-v0.01,2013-01-05 19:15:00,
2013-01-05 13:20:00,46.7,29.6,30.32,WSW,255,1.0,-999.0,51,0.00,,,0.00,Haskell-WGSend-v0.01,2013-01-05 19:20:00,
2013-01-05 13:25:00,46.7,30.0,30.31,WSW,253,0.0,-999.0,52,0.00,,,0.00,Haskell-WGSend-v0.01,2013-01-05 19:25:00,
2013-01-05 13:30:00,46.7,29.6,30.32,WSW,251,0.0,-999.0,51,0.00,,,0.00,Haskell-WGSend-v0.01,2013-01-05 19:30:00,
2013-01-05 13:35:00,46.7,30.0,30.32,WSW,251,0.0,-999.0,52,0.00,,,0.00,Haskell-WGSend-v0.01,2013-01-05 19:35:00,
2013-01-05 13:40:00,46.8,30.6,30.31,WSW,251,0.0,-999.0,53,0.00,,,0.00,Haskell-WGSend-v0.01,2013-01-05 19:40:00,
2013-01-05 13:45:00,47.0,29.8,30.32,WSW,251,4.0,-999.0,51,0.00,,,0.00,Haskell-WGSend-v0.01,2013-01-05 19:45:00,
2013-01-05 13:50:00,47.3,28.1,30.32,WSW,255,0.0,-999.0,47,0.00,,,0.00,Haskell-WGSend-v0.01,2013-01-05 19:50:00,
2013-01-05 13:55:00,47.6,28.9,30.31,WSW,255,1.0,-999.0,48,0.00,,,0.00,Haskell-WGSend-v0.01,2013-01-05 19:55:00,
2013-01-05 14:00:00,47.8,28.6,30.31,WSW,255,0.0,-999.0,47,0.00,,,0.00,Haskell-WGSend-v0.01,2013-01-05 20:00:00,
2013-01-05 14:10:00,48.0,28.8,30.31,WSW,255,0.0,-999.0,47,0.00,,,0.00,Haskell-WGSend-v0.01,2013-01-05 20:10:00,
2013-01-05 14:15:00,48.0,28.8,30.31,WSW,255,3.0,-999.0,47,0.00,,,0.00,Haskell-WGSend-v0.01,2013-01-05 20:15:00,
2013-01-05 14:20:00,47.9,29.2,30.31,WSW,257,2.0,-999.0,48,0.00,,,0.00,Haskell-WGSend-v0.01,2013-01-05 20:20:00,
2013-01-05 14:25:00,48.0,28.8,30.31,WSW,257,0.0,-999.0,47,0.00,,,0.00,Haskell-WGSend-v0.01,2013-01-05 20:25:00,
2013-01-05 14:30:00,48.0,28.8,30.31,WSW,257,3.0,-999.0,47,0.00,,,0.00,Haskell-WGSend-v0.01,2013-01-05 20:30:00,
2013-01-05 14:35:00,47.8,29.6,30.32,WSW,257,3.0,-999.0,49,0.00,,,0.00,Haskell-WGSend-v0.01,2013-01-05 20:35:00,
2013-01-05 14:40:00,47.8,30.1,30.32,WSW,257,1.0,-999.0,50,0.00,,,0.00,Haskell-WGSend-v0.01,2013-01-05 20:40:00,
2013-01-05 14:45:00,47.7,30.0,30.32,West,263,2.0,-999.0,50,0.00,,,0.00,Haskell-WGSend-v0.01,2013-01-05 20:45:00,
2013-01-05 14:50:00,47.5,29.8,30.32,West,263,1.0,-999.0,50,0.00,,,0.00,Haskell-WGSend-v0.01,2013-01-05 20:50:00,
2013-01-05 14:55:00,47.3,30.1,30.32,West,262,4.0,-999.0,51,0.00,,,0.00,Haskell-WGSend-v0.01,2013-01-05 20:55:00,
2013-01-05 15:00:00,47.2,30.5,30.32,West,262,0.0,-999.0,52,0.00,,,0.00,Haskell-WGSend-v0.01,2013-01-05 21:00:00,
2013-01-05 15:05:00,47.0,30.3,30.32,West,262,3.0,-999.0,52,0.00,,,0.00,Haskell-WGSend-v0.01,2013-01-05 21:05:00,
2013-01-05 15:10:00,47.0,30.8,30.32,West,262,1.0,-999.0,53,0.00,,,0.00,Haskell-WGSend-v0.01,2013-01-05 21:10:00,
2013-01-05 15:15:00,46.9,30.2,30.32,West,262,0.0,-999.0,52,0.00,,,0.00,Haskell-WGSend-v0.01,2013-01-05 21:15:00,
2013-01-05 15:20:00,46.8,30.1,30.31,West,262,0.0,-999.0,52,0.00,,,0.00,Haskell-WGSend-v0.01,2013-01-05 21:20:00,
2013-01-05 15:25:00,46.7,30.0,30.31,West,262,1.0,-999.0,52,0.00,,,0.00,Haskell-WGSend-v0.01,2013-01-05 21:25:00,
2013-01-05 15:30:00,46.6,29.5,30.31,West,262,0.0,-999.0,51,0.00,,,0.00,Haskell-WGSend-v0.01,2013-01-05 21:30:00,
2013-01-05 15:35:00,46.5,29.4,30.31,West,262,0.0,-999.0,51,0.00,,,0.00,Haskell-WGSend-v0.01,2013-01-05 21:35:00,
2013-01-05 15:40:00,46.5,29.4,30.31,West,262,0.0,-999.0,51,0.00,,,0.00,Haskell-WGSend-v0.01,2013-01-05 21:40:00,
2013-01-05 15:50:00,46.4,29.8,30.31,West,262,0.0,-999.0,52,0.00,,,0.00,Haskell-WGSend-v0.01,2013-01-05 21:50:00,
2013-01-05 16:00:00,46.3,30.1,30.32,West,262,0.0,-999.0,53,0.00,,,0.00,Haskell-WGSend-v0.01,2013-01-05 22:00:00,
2013-01-05 16:10:00,46.2,29.6,30.32,West,262,0.0,-999.0,52,0.00,,,0.00,Haskell-WGSend-v0.01,2013-01-05 22:10:00,
2013-01-05 16:15:00,46.2,30.0,30.32,West,262,0.0,-999.0,53,0.00,,,0.00,Haskell-WGSend-v0.01,2013-01-05 22:15:00,
2013-01-05 16:20:00,46.1,30.0,30.32,West,262,0.0,-999.0,53,0.00,,,0.00,Haskell-WGSend-v0.01,2013-01-05 22:20:00,
2013-01-05 16:25:00,46.1,30.0,30.33,West,262,1.0,-999.0,53,0.00,,,0.00,Haskell-WGSend-v0.01,2013-01-05 22:25:00,
2013-01-05 16:30:00,46.0,30.3,30.32,West,262,0.0,-999.0,54,0.00,,,0.00,Haskell-WGSend-v0.01,2013-01-05 22:30:00,
2013-01-05 16:35:00,46.0,30.3,30.32,West,262,0.0,-999.0,54,0.00,,,0.00,Haskell-WGSend-v0.01,2013-01-05 22:35:00,
2013-01-05 16:40:00,45.9,30.2,30.33,West,262,0.0,-999.0,54,0.00,,,0.00,Haskell-WGSend-v0.01,2013-01-05 22:40:00,
2013-01-05 16:45:00,45.8,30.6,30.32,West,262,0.0,-999.0,55,0.00,,,0.00,Haskell-WGSend-v0.01,2013-01-05 22:45:00,
2013-01-05 16:50:00,45.8,31.5,30.33,West,262,0.0,-999.0,57,0.00,,,0.00,Haskell-WGSend-v0.01,2013-01-05 22:50:00,
2013-01-05 16:55:00,45.8,31.5,30.34,West,262,0.0,-999.0,57,0.00,,,0.00,Haskell-WGSend-v0.01,2013-01-05 22:55:00,
2013-01-05 17:00:00,45.6,31.7,30.33,West,262,0.0,-999.0,58,0.00,,,0.00,Haskell-WGSend-v0.01,2013-01-05 23:00:00,
2013-01-05 17:05:00,45.5,31.6,30.33,West,262,0.0,-999.0,58,0.00,,,0.00,Haskell-WGSend-v0.01,2013-01-05 23:05:00,
2013-01-05 17:10:00,45.4,32.4,30.33,West,262,0.0,-999.0,60,0.00,,,0.00,Haskell-WGSend-v0.01,2013-01-05 23:10:00,
2013-01-05 17:15:00,45.3,33.1,30.32,West,262,0.0,-999.0,62,0.00,,,0.00,Haskell-WGSend-v0.01,2013-01-05 23:15:00,
2013-01-05 17:20:00,45.1,33.3,30.32,West,262,0.0,-999.0,63,0.00,,,0.00,Haskell-WGSend-v0.01,2013-01-05 23:20:00,
2013-01-05 17:25:00,44.9,33.1,30.33,West,262,0.0,-999.0,63,0.00,,,0.00,Haskell-WGSend-v0.01,2013-01-05 23:25:00,
2013-01-05 17:30:00,44.7,33.7,30.34,West,262,0.0,-999.0,65,0.00,,,0.00,Haskell-WGSend-v0.01,2013-01-05 23:30:00,
2013-01-05 17:35:00,44.6,33.6,30.33,West,262,0.0,-999.0,65,0.00,,,0.00,Haskell-WGSend-v0.01,2013-01-05 23:35:00,
2013-01-05 17:40:00,44.5,34.6,30.34,West,262,0.0,-999.0,68,0.00,,,0.00,Haskell-WGSend-v0.01,2013-01-05 23:40:00,
2013-01-05 17:45:00,44.3,34.4,30.34,West,262,0.0,-999.0,68,0.00,,,0.00,Haskell-WGSend-v0.01,2013-01-05 23:45:00,
2013-01-05 17:50:00,44.2,35.1,30.34,West,262,0.0,-999.0,70,0.00,,,0.00,Haskell-WGSend-v0.01,2013-01-05 23:50:00,
2013-01-05 17:55:00,44.1,35.0,30.34,West,262,0.0,-999.0,70,0.00,,,0.01,Haskell-WGSend-v0.01,2013-01-05 23:55:00,
2013-01-05 18:00:00,44.0,34.1,30.34,West,262,0.0,-999.0,68,0.00,,,0.01,Haskell-WGSend-v0.01,2013-01-06 00:00:00,
2013-01-05 18:05:00,43.9,34.8,30.34,West,262,0.0,-999.0,70,0.00,,,0.01,Haskell-WGSend-v0.01,2013-01-06 00:05:00,
2013-01-05 18:10:00,43.9,36.2,30.33,West,262,0.0,-999.0,74,0.00,,,0.01,Haskell-WGSend-v0.01,2013-01-06 00:10:00,
2013-01-05 18:15:00,43.8,36.4,30.33,West,262,0.0,-999.0,75,0.00,,,0.01,Haskell-WGSend-v0.01,2013-01-06 00:15:00,
2013-01-05 18:20:00,43.6,35.9,30.34,West,262,0.0,-999.0,74,0.00,,,0.01,Haskell-WGSend-v0.01,2013-01-06 00:20:00,
2013-01-05 18:25:00,43.5,35.4,30.33,West,262,0.0,-999.0,73,0.00,,,0.01,Haskell-WGSend-v0.01,2013-01-06 00:25:00,
2013-01-05 18:30:00,43.4,35.0,30.33,West,261,0.0,-999.0,72,0.00,,,0.01,Haskell-WGSend-v0.01,2013-01-06 00:30:00,
2013-01-05 18:35:00,43.3,34.9,30.34,SW,218,3.0,-999.0,72,0.00,,,0.01,Haskell-WGSend-v0.01,2013-01-06 00:35:00,
2013-01-05 18:40:00,43.3,34.9,30.33,SSW,209,2.0,-999.0,72,0.00,,,0.01,Haskell-WGSend-v0.01,2013-01-06 00:40:00,
2013-01-05 18:50:00,43.3,35.2,30.33,SSW,210,0.0,-999.0,73,0.00,,,0.01,Haskell-WGSend-v0.01,2013-01-06 00:50:00,
2013-01-05 18:55:00,43.2,35.5,30.33,SSW,209,0.0,-999.0,74,0.00,,,0.01,Haskell-WGSend-v0.01,2013-01-06 00:55:00,
2013-01-05 19:00:00,43.2,35.5,30.33,SSW,209,3.0,-999.0,74,0.00,,,0.01,Haskell-WGSend-v0.01,2013-01-06 01:00:00,
2013-01-05 19:05:00,43.1,35.7,30.33,SSW,209,0.0,-999.0,75,0.00,,,0.01,Haskell-WGSend-v0.01,2013-01-06 01:05:00,
2013-01-05 19:10:00,43.0,35.6,30.33,SSW,207,1.0,-999.0,75,0.00,,,0.01,Haskell-WGSend-v0.01,2013-01-06 01:10:00,
2013-01-05 19:15:00,42.9,35.5,30.33,SSW,207,0.0,-999.0,75,0.00,,,0.01,Haskell-WGSend-v0.01,2013-01-06 01:15:00,
2013-01-05 19:20:00,42.8,35.8,30.33,SSW,207,0.0,-999.0,76,0.00,,,0.01,Haskell-WGSend-v0.01,2013-01-06 01:20:00,
2013-01-05 19:25:00,42.8,35.8,30.33,SSW,207,1.0,-999.0,76,0.00,,,0.01,Haskell-WGSend-v0.01,2013-01-06 01:25:00,
2013-01-05 19:30:00,42.7,35.7,30.33,SSW,205,3.0,-999.0,76,0.00,,,0.01,Haskell-WGSend-v0.01,2013-01-06 01:30:00,
2013-01-05 19:35:00,42.6,35.9,30.33,SSW,208,2.0,-999.0,77,0.00,,,0.01,Haskell-WGSend-v0.01,2013-01-06 01:35:00,
2013-01-05 19:40:00,42.6,35.9,30.33,SSW,208,0.0,-999.0,77,0.00,,,0.01,Haskell-WGSend-v0.01,2013-01-06 01:40:00,
2013-01-05 19:45:00,42.4,35.7,30.34,SSW,205,3.0,-999.0,77,0.00,,,0.01,Haskell-WGSend-v0.01,2013-01-06 01:45:00,
2013-01-05 19:50:00,42.3,35.6,30.34,SSW,208,3.0,-999.0,77,0.00,,,0.01,Haskell-WGSend-v0.01,2013-01-06 01:50:00,
2013-01-05 19:55:00,42.2,35.9,30.33,SSW,207,0.0,-999.0,78,0.00,,,0.01,Haskell-WGSend-v0.01,2013-01-06 01:55:00,
2013-01-05 20:00:00,42.1,35.8,30.33,SW,215,3.0,-999.0,78,0.00,,,0.01,Haskell-WGSend-v0.01,2013-01-06 02:00:00,
2013-01-05 20:05:00,42.0,35.7,30.34,SW,219,1.0,-999.0,78,0.00,,,0.01,Haskell-WGSend-v0.01,2013-01-06 02:05:00,
2013-01-05 20:10:00,42.0,35.7,30.34,SW,220,1.0,-999.0,78,0.00,,,0.01,Haskell-WGSend-v0.01,2013-01-06 02:10:00,
2013-01-05 20:15:00,41.9,35.6,30.34,WSW,253,1.0,-999.0,78,0.00,,,0.01,Haskell-WGSend-v0.01,2013-01-06 02:15:00,
2013-01-05 20:20:00,41.8,35.8,30.33,WSW,252,2.0,-999.0,79,0.00,,,0.01,Haskell-WGSend-v0.01,2013-01-06 02:20:00,
2013-01-05 20:25:00,41.7,35.7,30.34,WSW,252,0.0,-999.0,79,0.00,,,0.01,Haskell-WGSend-v0.01,2013-01-06 02:25:00,
2013-01-05 20:30:00,41.7,36.0,30.33,WSW,252,0.0,-999.0,80,0.00,,,0.01,Haskell-WGSend-v0.01,2013-01-06 02:30:00,
2013-01-05 20:35:00,41.5,36.1,30.33,WSW,253,4.0,-999.0,81,0.00,,,0.01,Haskell-WGSend-v0.01,2013-01-06 02:35:00,
2013-01-05 20:40:00,41.4,36.3,30.34,WSW,254,4.0,-999.0,82,0.00,,,0.01,Haskell-WGSend-v0.01,2013-01-06 02:40:00,
2013-01-05 20:45:00,41.1,36.3,30.33,WSW,240,2.0,-999.0,83,0.00,,,0.01,Haskell-WGSend-v0.01,2013-01-06 02:45:00,
2013-01-05 20:50:00,40.9,36.1,30.33,WSW,241,2.0,-999.0,83,0.00,,,0.01,Haskell-WGSend-v0.01,2013-01-06 02:50:00,
2013-01-05 21:00:00,40.6,36.5,30.33,WSW,241,0.0,-999.0,85,0.00,,,0.01,Haskell-WGSend-v0.01,2013-01-06 03:00:00,
2013-01-05 21:05:00,40.4,36.6,30.33,WSW,240,0.0,-999.0,86,0.00,,,0.02,Haskell-WGSend-v0.01,2013-01-06 03:05:00,
2013-01-05 21:10:00,40.3,36.5,30.33,WSW,240,1.0,-999.0,86,0.00,,,0.02,Haskell-WGSend-v0.01,2013-01-06 03:10:00,
2013-01-05 21:20:00,40.1,36.6,30.34,WSW,240,0.0,-999.0,87,0.04,,,0.03,Haskell-WGSend-v0.01,2013-01-06 03:20:00,
2013-01-05 21:25:00,40.0,36.5,30.33,WSW,240,0.0,-999.0,87,0.04,,,0.03,Haskell-WGSend-v0.01,2013-01-06 03:25:00,
2013-01-05 21:30:00,40.0,36.7,30.33,SW,236,0.0,-999.0,88,0.04,,,0.03,Haskell-WGSend-v0.01,2013-01-06 03:30:00,
2013-01-05 21:35:00,39.8,36.5,30.33,SW,236,0.0,-999.0,88,0.00,,,0.03,Haskell-WGSend-v0.01,2013-01-06 03:35:00,
2013-01-05 21:40:00,39.7,36.7,30.33,SW,236,0.0,-999.0,89,0.00,,,0.04,Haskell-WGSend-v0.01,2013-01-06 03:40:00,
2013-01-05 21:45:00,39.7,36.7,30.33,SSW,211,3.0,-999.0,89,0.00,,,0.04,Haskell-WGSend-v0.01,2013-01-06 03:45:00,
2013-01-05 21:50:00,39.6,36.6,30.33,SSW,210,0.0,-999.0,89,0.00,,,0.04,Haskell-WGSend-v0.01,2013-01-06 03:50:00,
2013-01-05 21:55:00,39.5,36.8,30.33,SSW,205,6.0,-999.0,90,0.00,,,0.04,Haskell-WGSend-v0.01,2013-01-06 03:55:00,
2013-01-05 22:00:00,39.4,36.7,30.32,SSW,205,1.0,-999.0,90,0.00,,,0.05,Haskell-WGSend-v0.01,2013-01-06 04:00:00,
2013-01-05 22:05:00,39.3,36.6,30.32,SSW,205,0.0,-999.0,90,0.00,,,0.05,Haskell-WGSend-v0.01,2013-01-06 04:05:00,
2013-01-05 22:10:00,39.3,36.6,30.32,SSW,205,0.0,-999.0,90,0.00,,,0.05,Haskell-WGSend-v0.01,2013-01-06 04:10:00,
2013-01-05 22:15:00,39.2,36.5,30.32,SSW,205,0.0,-999.0,90,0.00,,,0.05,Haskell-WGSend-v0.01,2013-01-06 04:15:00,
2013-01-05 22:20:00,39.2,36.8,30.32,SSW,207,0.0,-999.0,91,0.00,,,0.05,Haskell-WGSend-v0.01,2013-01-06 04:20:00,
2013-01-05 22:25:00,39.2,36.8,30.32,SSW,207,3.0,-999.0,91,0.00,,,0.05,Haskell-WGSend-v0.01,2013-01-06 04:25:00,
2013-01-05 22:30:00,39.2,36.8,30.32,SSW,208,0.0,-999.0,91,0.00,,,0.05,Haskell-WGSend-v0.01,2013-01-06 04:30:00,
2013-01-05 22:35:00,39.1,36.7,30.32,SSW,212,0.0,-999.0,91,0.00,,,0.05,Haskell-WGSend-v0.01,2013-01-06 04:35:00,
2013-01-05 22:40:00,39.1,36.7,30.32,SSW,211,4.0,-999.0,91,0.00,,,0.05,Haskell-WGSend-v0.01,2013-01-06 04:40:00,
2013-01-05 22:45:00,39.1,36.7,30.32,SSW,206,1.0,-999.0,91,0.00,,,0.05,Haskell-WGSend-v0.01,2013-01-06 04:45:00,
2013-01-05 22:50:00,39.0,36.6,30.32,SSW,206,0.0,-999.0,91,0.00,,,0.05,Haskell-WGSend-v0.01,2013-01-06 04:50:00,
2013-01-05 22:55:00,39.0,36.6,30.32,SSW,207,1.0,-999.0,91,0.00,,,0.05,Haskell-WGSend-v0.01,2013-01-06 04:55:00,
2013-01-05 23:00:00,39.1,36.7,30.32,SSW,201,4.0,-999.0,91,0.00,,,0.05,Haskell-WGSend-v0.01,2013-01-06 05:00:00,
2013-01-05 23:10:00,39.1,37.0,30.32,SSW,202,0.0,-999.0,92,0.00,,,0.05,Haskell-WGSend-v0.01,2013-01-06 05:10:00,
2013-01-05 23:15:00,39.1,37.0,30.31,SSW,202,0.0,-999.0,92,0.00,,,0.05,Haskell-WGSend-v0.01,2013-01-06 05:15:00,
2013-01-05 23:20:00,39.1,37.0,30.31,SSW,202,3.0,-999.0,92,0.00,,,0.05,Haskell-WGSend-v0.01,2013-01-06 05:20:00,
2013-01-05 23:25:00,39.1,37.0,30.31,SSW,202,4.0,-999.0,92,0.00,,,0.05,Haskell-WGSend-v0.01,2013-01-06 05:25:00,
2013-01-05 23:30:00,39.1,37.0,30.31,SSW,202,0.0,-999.0,92,0.00,,,0.05,Haskell-WGSend-v0.01,2013-01-06 05:30:00,
2013-01-05 23:35:00,39.0,36.9,30.31,SSW,202,2.0,-999.0,92,0.00,,,0.05,Haskell-WGSend-v0.01,2013-01-06 05:35:00,
2013-01-05 23:40:00,39.0,36.9,30.32,SSW,202,0.0,-999.0,92,0.00,,,0.05,Haskell-WGSend-v0.01,2013-01-06 05:40:00,
2013-01-05 23:45:00,38.9,36.8,30.32,SSW,202,0.0,-999.0,92,0.00,,,0.05,Haskell-WGSend-v0.01,2013-01-06 05:45:00,
2013-01-05 23:50:00,38.9,36.8,30.31,SSW,202,0.0,-999.0,92,0.00,,,0.05,Haskell-WGSend-v0.01,2013-01-06 05:50:00,
2013-01-05 23:55:00,38.9,36.8,30.31,SSW,202,0.0,-999.0,92,0.00,,,0.05,Haskell-WGSend-v0.01,2013-01-06 05:55:00,